Wetterdaten: Woche 29.01.07 - 04.02.07 (KW5)
Datum Zeit Temperatur Luftfeuchte Luftdruck Niederschlag Wind Richtung Sonnenschein UV-Strahlung Solar Taupunkt Windchill Windben
29.01.2007 00:00 3.0 C 76 % 1029.1 hPa 0.0 l/m 7.0 km/h (2 Bft) W 0.00 h 0.0 UV-I 0 W/m -0.9 C 1.1 C 11.0 km/h (2 Bft)
29.01.2007 01:00 2.8 C 77 % 1028.8 hPa 0.0 l/m 5.4 km/h (1 Bft) W 0.00 h 0.0 UV-I 0 W/m -0.9 C 1.6 C 8.1 km/h (2 Bft)
29.01.2007 02:00 2.5 C 77 % 1028.4 hPa 0.0 l/m 3.3 km/h (1 Bft) W-SW 0.00 h 0.0 UV-I 0 W/m -1.1 C 2.1 C 6.4 km/h (2 Bft)
29.01.2007 03:00 2.1 C 77 % 1028.4 hPa 0.0 l/m 1.8 km/h (1 Bft) W-SW 0.00 h 0.0 UV-I 0 W/m -1.6 C 2.0 C 4.2 km/h (1 Bft)
29.01.2007 04:00 2.0 C 76 % 1028.5 hPa 0.0 l/m 3.4 km/h (1 Bft) S-SO 0.00 h 0.0 UV-I 0 W/m -1.8 C 1.5 C 6.4 km/h (2 Bft)
29.01.2007 05:00 1.7 C 78 % 1028.3 hPa 0.0 l/m 2.9 km/h (1 Bft) S 0.00 h 0.0 UV-I 0 W/m -1.8 C 1.5 C 6.1 km/h (2 Bft)
29.01.2007 06:00 1.2 C 79 % 1028.1 hPa 0.0 l/m 2.9 km/h (1 Bft) W-SW 0.00 h 0.0 UV-I 0 W/m -2.1 C 0.8 C 6.4 km/h (2 Bft)
29.01.2007 07:00 1.1 C 78 % 1028.3 hPa 0.0 l/m 1.4 km/h (1 Bft) S-SO 0.00 h 0.0 UV-I 5 W/m -2.2 C 1.1 C 3.6 km/h (1 Bft)
29.01.2007 08:00 1.2 C 78 % 1028.4 hPa 0.0 l/m 4.2 km/h (1 Bft) S-SO 0.80 h 0.0 UV-I 43 W/m -2.1 C 0.4 C 7.6 km/h (2 Bft)
29.01.2007 09:00 1.8 C 76 % 1028.3 hPa 0.0 l/m 4.7 km/h (1 Bft) S 0.67 h 0.6 UV-I 154 W/m -2.0 C 0.9 C 9.1 km/h (2 Bft)
29.01.2007 10:00 3.2 C 72 % 1028.4 hPa 0.0 l/m 3.3 km/h (1 Bft) S-SO 1.00 h 0.9 UV-I 309 W/m -1.3 C 2.9 C 6.7 km/h (2 Bft)
29.01.2007 11:00 4.8 C 67 % 1028.3 hPa 0.0 l/m 3.7 km/h (1 Bft) S 1.00 h 1.2 UV-I 368 W/m -0.8 C 4.5 C 7.2 km/h (2 Bft)
29.01.2007 12:00 5.9 C 63 % 1027.6 hPa 0.0 l/m 1.3 km/h (1 Bft) N-NW 1.00 h 1.4 UV-I 368 W/m -0.6 C 5.9 C 3.5 km/h (1 Bft)
29.01.2007 13:00 6.9 C 62 % 1026.6 hPa 0.0 l/m 2.2 km/h (1 Bft) N 1.00 h 1.4 UV-I 354 W/m 0.0 C 6.8 C 4.7 km/h (1 Bft)
29.01.2007 14:00 6.8 C 62 % 1026.1 hPa 0.0 l/m 1.9 km/h (1 Bft) O-SO 1.00 h 1.1 UV-I 293 W/m 0.1 C 6.8 C 3.8 km/h (1 Bft)
29.01.2007 15:00 7.4 C 61 % 1025.5 hPa 0.0 l/m 1.3 km/h (1 Bft) S-SO 1.00 h 0.7 UV-I 195 W/m 0.4 C 7.4 C 3.4 km/h (1 Bft)
29.01.2007 16:00 7.3 C 63 % 1025.3 hPa 0.0 l/m 0.8 km/h (0 Bft) S 0.80 h 0.5 UV-I 76 W/m 0.7 C 7.3 C 1.9 km/h (1 Bft)
29.01.2007 17:00 5.2 C 72 % 1025.5 hPa 0.0 l/m 0.4 km/h (0 Bft) S-SO 0.02 h 0.0 UV-I 8 W/m 0.6 C 5.2 C 1.5 km/h (1 Bft)
29.01.2007 18:00 3.2 C 81 % 1026.7 hPa 0.0 l/m 0.7 km/h (0 Bft) O-SO 0.00 h 0.0 UV-I 0 W/m 0.2 C 3.1 C 2.0 km/h (1 Bft)
29.01.2007 19:00 1.8 C 85 % 1027.0 hPa 0.0 l/m 3.3 km/h (1 Bft) O 0.00 h 0.0 UV-I 0 W/m -0.4 C 1.2 C 4.7 km/h (1 Bft)
29.01.2007 20:00 0.9 C 88 % 1026.7 hPa 0.0 l/m 1.7 km/h (1 Bft) O 0.00 h 0.0 UV-I 0 W/m -0.8 C 0.8 C 3.1 km/h (1 Bft)
29.01.2007 21:00 0.0 C 91 % 1026.4 hPa 0.0 l/m 1.4 km/h (1 Bft) O 0.00 h 0.0 UV-I 0 W/m -1.2 C -0.0 C 2.5 km/h (1 Bft)
29.01.2007 22:00 -0.4 C 92 % 1026.4 hPa 0.0 l/m 0.8 km/h (0 Bft) O 0.00 h 0.0 UV-I 0 W/m -1.5 C -0.4 C 1.9 km/h (1 Bft)
29.01.2007 23:00 -0.8 C 93 % 1026.0 hPa 0.0 l/m 2.1 km/h (1 Bft) O 0.00 h 0.0 UV-I 0 W/m -1.8 C -1.1 C 3.4 km/h (1 Bft)
30.01.2007 00:00 -1.2 C 94 % 1025.8 hPa 0.0 l/m 0.5 km/h (0 Bft) O-SO 0.00 h 0.0 UV-I 0 W/m -2.1 C -1.2 C 1.1 km/h (0 Bft)
30.01.2007 01:00 -1.6 C 94 % 1025.8 hPa 0.0 l/m 0.1 km/h (0 Bft) O-SO 0.00 h 0.0 UV-I 0 W/m -2.4 C -1.6 C 0.4 km/h (0 Bft)
30.01.2007 02:00 -1.5 C 96 % 1025.9 hPa 0.0 l/m 0.3 km/h (0 Bft) O-SO 0.00 h 0.0 UV-I 0 W/m -2.1 C -1.5 C 1.1 km/h (1 Bft)
30.01.2007 03:00 -1.8 C 97 % 1025.6 hPa 0.0 l/m 1.3 km/h (1 Bft) O-NO 0.00 h 0.0 UV-I 0 W/m -2.2 C -1.9 C 2.3 km/h (1 Bft)
30.01.2007 04:00 -2.4 C 98 % 1025.5 hPa 0.0 l/m 0.1 km/h (0 Bft) O-NO 0.00 h 0.0 UV-I 0 W/m -2.6 C -2.4 C 0.3 km/h (0 Bft)
30.01.2007 05:00 -2.8 C 97 % 1025.7 hPa 0.0 l/m 0.5 km/h (0 Bft) O-NO 0.00 h 0.0 UV-I 0 W/m -3.2 C -2.8 C 1.4 km/h (1 Bft)
30.01.2007 06:00 -2.9 C 97 % 1025.7 hPa 0.0 l/m 0.1 km/h (0 Bft) O-NO 0.00 h 0.0 UV-I 0 W/m -3.3 C -2.9 C 0.4 km/h (0 Bft)
30.01.2007 07:00 -3.1 C 97 % 1026.2 hPa 0.0 l/m 0.5 km/h (0 Bft) O-NO 0.00 h 0.0 UV-I 0 W/m -3.5 C -3.1 C 1.3 km/h (1 Bft)
30.01.2007 08:00 -3.2 C 96 % 1026.9 hPa 0.0 l/m 0.0 km/h (0 Bft) N 0.03 h 0.0 UV-I 29 W/m -3.7 C -3.2 C 0.0 km/h (0 Bft)
30.01.2007 09:00 -2.5 C 97 % 1027.2 hPa 0.0 l/m 0.0 km/h (0 Bft) N 0.00 h 0.5 UV-I 82 W/m -2.9 C -2.5 C 0.1 km/h (0 Bft)
30.01.2007 10:00 -1.5 C 98 % 1027.1 hPa 0.0 l/m 0.0 km/h (0 Bft) N 0.05 h 0.8 UV-I 141 W/m -1.7 C -1.5 C 0.4 km/h (0 Bft)
30.01.2007 11:00 0.2 C 99 % 1026.9 hPa 0.0 l/m 0.0 km/h (0 Bft) N 0.83 h 1.3 UV-I 277 W/m 0.1 C 0.2 C 0.5 km/h (0 Bft)
30.01.2007 12:00 3.6 C 91 % 1026.3 hPa 0.0 l/m 0.5 km/h (0 Bft) O-NO 1.00 h 1.6 UV-I 363 W/m 2.2 C 3.6 C 1.9 km/h (1 Bft)
30.01.2007 13:00 6.5 C 72 % 1025.7 hPa 0.0 l/m 6.8 km/h (2 Bft) O-SO 1.00 h 1.5 UV-I 352 W/m 1.8 C 5.2 C 10.5 km/h (2 Bft)
30.01.2007 14:00 6.9 C 69 % 1025.0 hPa 0.0 l/m 9.5 km/h (2 Bft) SO 1.00 h 1.1 UV-I 294 W/m 1.7 C 5.1 C 14.7 km/h (3 Bft)
30.01.2007 15:00 7.1 C 69 % 1024.8 hPa 0.0 l/m 7.3 km/h (2 Bft) O-SO 1.00 h 0.7 UV-I 190 W/m 1.7 C 5.8 C 11.2 km/h (2 Bft)
30.01.2007 16:00 6.4 C 71 % 1025.0 hPa 0.0 l/m 5.1 km/h (1 Bft) O-SO 0.57 h 0.5 UV-I 72 W/m 1.5 C 5.7 C 7.9 km/h (2 Bft)
30.01.2007 17:00 5.1 C 75 % 1025.3 hPa 0.0 l/m 1.0 km/h (0 Bft) O-SO 0.05 h 0.0 UV-I 11 W/m 1.1 C 5.1 C 2.4 km/h (1 Bft)
30.01.2007 18:00 3.4 C 81 % 1025.7 hPa 0.0 l/m 2.7 km/h (1 Bft) O 0.00 h 0.0 UV-I 0 W/m 0.5 C 3.2 C 4.3 km/h (1 Bft)
30.01.2007 19:00 2.1 C 86 % 1026.4 hPa 0.0 l/m 4.0 km/h (1 Bft) O-SO 0.00 h 0.0 UV-I 0 W/m 0.0 C 1.3 C 6.0 km/h (2 Bft)
30.01.2007 20:00 1.4 C 88 % 1026.3 hPa 0.0 l/m 2.1 km/h (1 Bft) O 0.00 h 0.0 UV-I 0 W/m -0.5 C 1.2 C 3.5 km/h (1 Bft)
30.01.2007 21:00 0.2 C 91 % 1026.4 hPa 0.0 l/m 1.6 km/h (1 Bft) O-SO 0.00 h 0.0 UV-I 0 W/m -1.0 C 0.1 C 2.6 km/h (1 Bft)
30.01.2007 22:00 -0.1 C 93 % 1026.3 hPa 0.0 l/m 0.5 km/h (0 Bft) O-SO 0.00 h 0.0 UV-I 0 W/m -1.2 C -0.1 C 1.3 km/h (1 Bft)
30.01.2007 23:00 -0.6 C 95 % 1026.0 hPa 0.0 l/m 0.9 km/h (0 Bft) O-SO 0.00 h 0.0 UV-I 0 W/m -1.3 C -0.6 C 1.7 km/h (1 Bft)
31.01.2007 00:00 -1.1 C 95 % 1025.4 hPa 0.0 l/m 0.7 km/h (0 Bft) O-SO 0.00 h 0.0 UV-I 0 W/m -1.8 C -1.1 C 1.6 km/h (1 Bft)
31.01.2007 01:00 -1.6 C 95 % 1025.1 hPa 0.0 l/m 1.4 km/h (1 Bft) O 0.00 h 0.0 UV-I 0 W/m -2.2 C -1.6 C 2.5 km/h (1 Bft)
31.01.2007 02:00 -1.9 C 96 % 1025.1 hPa 0.0 l/m 0.9 km/h (0 Bft) O 0.00 h 0.0 UV-I 0 W/m -2.4 C -2.0 C 1.6 km/h (1 Bft)
31.01.2007 03:00 -2.4 C 97 % 1024.9 hPa 0.0 l/m 0.0 km/h (0 Bft) N 0.00 h 0.0 UV-I 0 W/m -2.9 C -2.4 C 0.2 km/h (0 Bft)
31.01.2007 04:00 -2.3 C 97 % 1025.0 hPa 0.0 l/m 1.7 km/h (1 Bft) O 0.00 h 0.0 UV-I 0 W/m -2.7 C -2.3 C 3.2 km/h (1 Bft)
31.01.2007 05:00 -1.8 C 98 % 1025.1 hPa 0.0 l/m 0.0 km/h (0 Bft) O-SO 0.00 h 0.0 UV-I 0 W/m -2.1 C -1.8 C 0.4 km/h (0 Bft)
31.01.2007 06:00 -1.8 C 98 % 1025.5 hPa 0.0 l/m 0.7 km/h (0 Bft) O-SO 0.00 h 0.0 UV-I 0 W/m -2.1 C -1.8 C 2.3 km/h (1 Bft)
31.01.2007 07:00 -1.5 C 98 % 1025.7 hPa 0.0 l/m 1.1 km/h (1 Bft) S-SO 0.00 h 0.0 UV-I 0 W/m -1.8 C -1.6 C 2.9 km/h (1 Bft)
31.01.2007 08:00 -1.3 C 98 % 1026.0 hPa 0.0 l/m 1.7 km/h (1 Bft) S-SO 0.00 h 0.0 UV-I 13 W/m -1.5 C -1.3 C 3.9 km/h (1 Bft)
31.01.2007 09:00 -0.8 C 98 % 1026.4 hPa 0.0 l/m 0.7 km/h (0 Bft) S-SO 0.00 h 0.0 UV-I 39 W/m -1.1 C -0.8 C 2.4 km/h (1 Bft)
31.01.2007 10:00 -0.3 C 98 % 1026.3 hPa 0.0 l/m 1.5 km/h (1 Bft) S 0.00 h 0.6 UV-I 70 W/m -0.6 C -0.3 C 4.2 km/h (1 Bft)
31.01.2007 11:00 0.2 C 96 % 1026.3 hPa 0.0 l/m 1.8 km/h (1 Bft) S-SO 0.00 h 0.7 UV-I 89 W/m -0.4 C 0.2 C 4.4 km/h (1 Bft)
31.01.2007 12:00 0.4 C 93 % 1026.3 hPa 0.0 l/m 0.4 km/h (0 Bft) S-SO 0.00 h 0.7 UV-I 82 W/m -0.6 C 0.4 C 1.9 km/h (1 Bft)
31.01.2007 13:00 0.9 C 90 % 1026.1 hPa 0.0 l/m 0.5 km/h (0 Bft) S-SW 0.00 h 0.7 UV-I 95 W/m -0.5 C 0.9 C 1.9 km/h (1 Bft)
31.01.2007 14:00 1.3 C 88 % 1025.8 hPa 0.0 l/m 1.2 km/h (1 Bft) S-SO 0.00 h 0.6 UV-I 83 W/m -0.4 C 1.3 C 2.7 km/h (1 Bft)
31.01.2007 15:00 1.3 C 88 % 1025.4 hPa 0.0 l/m 2.7 km/h (1 Bft) O-SO 0.00 h 0.5 UV-I 44 W/m -0.5 C 0.9 C 4.6 km/h (1 Bft)
31.01.2007 16:00 1.4 C 88 % 1025.3 hPa 0.0 l/m 0.8 km/h (0 Bft) SO 0.00 h 0.0 UV-I 19 W/m -0.4 C 1.4 C 2.2 km/h (1 Bft)
31.01.2007 17:00 1.3 C 89 % 1026.0 hPa 0.0 l/m 0.5 km/h (0 Bft) SO 0.00 h 0.0 UV-I 5 W/m -0.3 C 1.3 C 1.4 km/h (1 Bft)
31.01.2007 18:00 1.3 C 90 % 1026.5 hPa 0.0 l/m 0.1 km/h (0 Bft) SO 0.00 h 0.0 UV-I 0 W/m -0.2 C 1.3 C 0.7 km/h (0 Bft)
31.01.2007 19:00 1.3 C 90 % 1027.0 hPa 0.0 l/m 1.3 km/h (1 Bft) SO 0.00 h 0.0 UV-I 0 W/m -0.1 C 1.3 C 2.6 km/h (1 Bft)
31.01.2007 20:00 1.3 C 91 % 1027.1 hPa 0.0 l/m 0.4 km/h (0 Bft) S-SO 0.00 h 0.0 UV-I 0 W/m -0.1 C 1.3 C 1.4 km/h (1 Bft)
31.01.2007 21:00 1.2 C 90 % 1026.9 hPa 0.0 l/m 1.0 km/h (0 Bft) S-SO 0.00 h 0.0 UV-I 0 W/m -0.2 C 1.2 C 3.2 km/h (1 Bft)
31.01.2007 22:00 1.1 C 90 % 1027.0 hPa 0.0 l/m 0.7 km/h (0 Bft) S 0.00 h 0.0 UV-I 0 W/m -0.4 C 1.1 C 2.0 km/h (1 Bft)
31.01.2007 23:00 1.1 C 91 % 1027.8 hPa 0.0 l/m 1.5 km/h (1 Bft) SO 0.00 h 0.0 UV-I 0 W/m -0.2 C 1.1 C 2.9 km/h (1 Bft)
01.02.2007 00:00 0.6 C 92 % 1028.2 hPa 0.0 l/m 1.4 km/h (1 Bft) S 0.00 h 0.0 UV-I 0 W/m -0.6 C 0.6 C 3.3 km/h (1 Bft)
01.02.2007 01:00 0.9 C 91 % 1027.8 hPa 0.0 l/m 2.9 km/h (1 Bft) S-SO 0.00 h 0.0 UV-I 0 W/m -0.3 C 0.6 C 5.9 km/h (2 Bft)
01.02.2007 02:00 0.9 C 91 % 1027.6 hPa 0.0 l/m 1.3 km/h (1 Bft) S-SO 0.00 h 0.0 UV-I 0 W/m -0.5 C 0.9 C 3.7 km/h (1 Bft)
01.02.2007 03:00 0.8 C 90 % 1028.0 hPa 0.0 l/m 0.4 km/h (0 Bft) S 0.00 h 0.0 UV-I 0 W/m -0.6 C 0.8 C 1.7 km/h (1 Bft)
01.02.2007 04:00 0.8 C 90 % 1028.0 hPa 0.0 l/m 2.0 km/h (1 Bft) S-SO 0.00 h 0.0 UV-I 0 W/m -0.6 C 0.8 C 4.2 km/h (1 Bft)
01.02.2007 05:00 0.8 C 90 % 1028.2 hPa 0.0 l/m 1.2 km/h (1 Bft) SO 0.00 h 0.0 UV-I 0 W/m -0.5 C 0.8 C 3.3 km/h (1 Bft)
01.02.2007 06:00 1.0 C 90 % 1028.5 hPa 0.0 l/m 0.7 km/h (0 Bft) S-SO 0.00 h 0.0 UV-I 0 W/m -0.5 C 1.0 C 2.7 km/h (1 Bft)
01.02.2007 07:00 1.1 C 89 % 1028.9 hPa 0.0 l/m 0.7 km/h (0 Bft) S 0.00 h 0.0 UV-I 0 W/m -0.5 C 1.1 C 2.9 km/h (1 Bft)
01.02.2007 08:00 1.1 C 92 % 1029.6 hPa 0.0 l/m 1.1 km/h (0 Bft) S 0.00 h 0.0 UV-I 23 W/m -0.1 C 1.1 C 3.0 km/h (1 Bft)
01.02.2007 09:00 1.5 C 94 % 1029.9 hPa 0.0 l/m 1.3 km/h (1 Bft) S 0.00 h 0.5 UV-I 62 W/m 0.6 C 1.4 C 3.7 km/h (1 Bft)
01.02.2007 10:00 2.1 C 92 % 1030.3 hPa 0.0 l/m 2.0 km/h (1 Bft) S 0.00 h 0.8 UV-I 129 W/m 1.0 C 2.1 C 4.7 km/h (1 Bft)
01.02.2007 11:00 2.9 C 87 % 1030.3 hPa 0.0 l/m 1.6 km/h (1 Bft) S-SO 0.00 h 0.9 UV-I 152 W/m 1.1 C 2.8 C 3.8 km/h (1 Bft)
01.02.2007 12:00 3.6 C 84 % 1030.2 hPa 0.0 l/m 0.7 km/h (0 Bft) SW 0.00 h 1.1 UV-I 181 W/m 1.3 C 3.6 C 2.1 km/h (1 Bft)
01.02.2007 13:00 4.3 C 81 % 1029.7 hPa 0.0 l/m 1.1 km/h (0 Bft) W-SW 0.00 h 1.1 UV-I 186 W/m 1.2 C 4.3 C 2.8 km/h (1 Bft)
01.02.2007 14:00 4.8 C 79 % 1029.5 hPa 0.0 l/m 1.2 km/h (1 Bft) N-NW 0.00 h 0.8 UV-I 102 W/m 1.4 C 4.8 C 3.0 km/h (1 Bft)
01.02.2007 15:00 5.2 C 78 % 1029.5 hPa 0.0 l/m 3.0 km/h (1 Bft) N-NW 0.18 h 0.6 UV-I 111 W/m 1.7 C 5.1 C 5.4 km/h (1 Bft)
01.02.2007 16:00 5.1 C 78 % 1029.6 hPa 0.0 l/m 0.6 km/h (0 Bft) W-NW 0.00 h 0.5 UV-I 48 W/m 1.6 C 5.1 C 1.4 km/h (1 Bft)
01.02.2007 17:00 4.5 C 82 % 1030.0 hPa 0.0 l/m 0.9 km/h (0 Bft) W-NW 0.00 h 0.0 UV-I 9 W/m 1.7 C 4.5 C 1.7 km/h (1 Bft)
01.02.2007 18:00 4.3 C 84 % 1030.6 hPa 0.0 l/m 0.2 km/h (0 Bft) N 0.00 h 0.0 UV-I 0 W/m 1.8 C 4.3 C 1.1 km/h (1 Bft)
01.02.2007 19:00 4.3 C 86 % 1030.9 hPa 0.0 l/m 0.0 km/h (0 Bft) N 0.00 h 0.0 UV-I 0 W/m 2.2 C 4.3 C 0.1 km/h (0 Bft)
01.02.2007 20:00 4.2 C 88 % 1030.8 hPa 0.0 l/m 0.1 km/h (0 Bft) N 0.00 h 0.0 UV-I 0 W/m 2.3 C 4.2 C 0.7 km/h (0 Bft)
01.02.2007 21:00 4.1 C 88 % 1031.0 hPa 0.0 l/m 0.0 km/h (0 Bft) N 0.00 h 0.0 UV-I 0 W/m 2.3 C 4.1 C 0.3 km/h (0 Bft)
01.02.2007 22:00 4.0 C 88 % 1031.0 hPa 0.0 l/m 0.2 km/h (0 Bft) N-NO 0.00 h 0.0 UV-I 0 W/m 2.2 C 4.0 C 1.0 km/h (0 Bft)
01.02.2007 23:00 3.9 C 88 % 1031.1 hPa 0.0 l/m 0.6 km/h (0 Bft) NO 0.00 h 0.0 UV-I 0 W/m 2.0 C 3.9 C 2.0 km/h (1 Bft)
02.02.2007 00:00 3.4 C 90 % 1031.1 hPa 0.0 l/m 0.5 km/h (0 Bft) N-NO 0.00 h 0.0 UV-I 0 W/m 1.9 C 3.4 C 1.7 km/h (1 Bft)
02.02.2007 01:00 3.3 C 90 % 1031.1 hPa 0.0 l/m 5.0 km/h (1 Bft) O-SO 0.00 h 0.0 UV-I 0 W/m 1.8 C 2.2 C 8.9 km/h (2 Bft)
02.02.2007 02:00 3.4 C 89 % 1031.2 hPa 0.0 l/m 0.3 km/h (0 Bft) O 0.00 h 0.0 UV-I 0 W/m 1.8 C 3.4 C 1.5 km/h (1 Bft)
02.02.2007 03:00 3.3 C 90 % 1031.0 hPa 0.0 l/m 0.1 km/h (0 Bft) O-NO 0.00 h 0.0 UV-I 0 W/m 1.9 C 3.3 C 0.4 km/h (0 Bft)
02.02.2007 04:00 3.3 C 91 % 1031.3 hPa 0.0 l/m 0.1 km/h (0 Bft) O-NO 0.00 h 0.0 UV-I 0 W/m 2.0 C 3.3 C 0.5 km/h (0 Bft)
02.02.2007 05:00 3.2 C 91 % 1031.1 hPa 0.0 l/m 0.1 km/h (0 Bft) O-NO 0.00 h 0.0 UV-I 0 W/m 1.9 C 3.2 C 0.2 km/h (0 Bft)
02.02.2007 06:00 3.3 C 87 % 1031.1 hPa 0.0 l/m 0.6 km/h (0 Bft) NO 0.00 h 0.0 UV-I 0 W/m 1.4 C 3.3 C 2.2 km/h (1 Bft)
02.02.2007 07:00 3.2 C 87 % 1031.2 hPa 0.0 l/m 0.3 km/h (0 Bft) NO 0.00 h 0.0 UV-I 0 W/m 1.2 C 3.2 C 1.0 km/h (0 Bft)
02.02.2007 08:00 2.5 C 89 % 1031.4 hPa 0.0 l/m 0.1 km/h (0 Bft) NO 0.00 h 0.0 UV-I 18 W/m 0.8 C 2.5 C 0.4 km/h (0 Bft)
02.02.2007 09:00 2.7 C 89 % 1031.8 hPa 0.0 l/m 0.2 km/h (0 Bft) NO 0.00 h 0.6 UV-I 68 W/m 1.1 C 2.7 C 1.1 km/h (1 Bft)
02.02.2007 10:00 3.7 C 85 % 1032.1 hPa 0.0 l/m 2.9 km/h (1 Bft) O-SO 0.02 h 0.8 UV-I 149 W/m 1.4 C 3.4 C 5.2 km/h (1 Bft)
02.02.2007 11:00 4.2 C 83 % 1032.2 hPa 0.0 l/m 3.3 km/h (1 Bft) O-SO 0.05 h 1.2 UV-I 197 W/m 1.7 C 3.8 C 5.7 km/h (1 Bft)
02.02.2007 12:00 5.3 C 80 % 1031.6 hPa 0.0 l/m 4.6 km/h (1 Bft) SO 0.67 h 1.6 UV-I 317 W/m 2.2 C 4.7 C 7.9 km/h (2 Bft)
02.02.2007 13:00 6.0 C 77 % 1031.0 hPa 0.0 l/m 3.2 km/h (1 Bft) SO 0.63 h 1.5 UV-I 280 W/m 2.4 C 5.7 C 5.7 km/h (1 Bft)
02.02.2007 14:00 7.3 C 73 % 1030.4 hPa 0.0 l/m 1.5 km/h (1 Bft) S 1.00 h 1.2 UV-I 295 W/m 2.8 C 7.3 C 3.8 km/h (1 Bft)
02.02.2007 15:00 7.6 C 71 % 1030.3 hPa 0.0 l/m 2.4 km/h (1 Bft) S-SO 1.00 h 0.7 UV-I 198 W/m 2.7 C 7.5 C 4.7 km/h (1 Bft)
02.02.2007 16:00 7.6 C 70 % 1030.6 hPa 0.0 l/m 1.2 km/h (1 Bft) S-SW 0.80 h 0.5 UV-I 87 W/m 2.5 C 7.6 C 3.0 km/h (1 Bft)
02.02.2007 17:00 5.9 C 77 % 1031.1 hPa 0.0 l/m 2.3 km/h (1 Bft) O-SO 0.03 h 0.0 UV-I 13 W/m 2.2 C 5.9 C 4.2 km/h (1 Bft)
02.02.2007 18:00 4.5 C 83 % 1031.9 hPa 0.0 l/m 4.1 km/h (1 Bft) SO 0.00 h 0.0 UV-I 0 W/m 1.9 C 3.9 C 6.4 km/h (2 Bft)
02.02.2007 19:00 3.7 C 84 % 1032.6 hPa 0.0 l/m 3.3 km/h (1 Bft) S-SO 0.00 h 0.0 UV-I 0 W/m 1.1 C 3.4 C 5.7 km/h (1 Bft)
02.02.2007 20:00 3.5 C 84 % 1033.1 hPa 0.0 l/m 1.5 km/h (1 Bft) S 0.00 h 0.0 UV-I 0 W/m 1.1 C 3.5 C 3.9 km/h (1 Bft)
02.02.2007 21:00 3.4 C 84 % 1033.0 hPa 0.0 l/m 2.2 km/h (1 Bft) S-SO 0.00 h 0.0 UV-I 0 W/m 1.0 C 3.3 C 4.9 km/h (1 Bft)
02.02.2007 22:00 3.4 C 84 % 1033.3 hPa 0.0 l/m 1.0 km/h (0 Bft) S-SO 0.00 h 0.0 UV-I 0 W/m 1.0 C 3.3 C 2.3 km/h (1 Bft)
02.02.2007 23:00 3.4 C 86 % 1033.7 hPa 0.0 l/m 0.2 km/h (0 Bft) S-SO 0.00 h 0.0 UV-I 0 W/m 1.2 C 3.4 C 0.9 km/h (0 Bft)
03.02.2007 00:00 3.4 C 86 % 1033.6 hPa 0.0 l/m 0.7 km/h (0 Bft) S-SO 0.00 h 0.0 UV-I 0 W/m 1.3 C 3.4 C 2.1 km/h (1 Bft)
03.02.2007 01:00 3.4 C 86 % 1033.6 hPa 0.0 l/m 2.3 km/h (1 Bft) S-SO 0.00 h 0.0 UV-I 0 W/m 1.3 C 3.1 C 4.5 km/h (1 Bft)
03.02.2007 02:00 3.4 C 86 % 1033.5 hPa 0.0 l/m 1.1 km/h (0 Bft) S-SO 0.00 h 0.0 UV-I 0 W/m 1.3 C 3.4 C 2.9 km/h (1 Bft)
03.02.2007 03:00 3.4 C 86 % 1033.4 hPa 0.0 l/m 2.4 km/h (1 Bft) S-SO 0.00 h 0.0 UV-I 0 W/m 1.3 C 3.3 C 4.2 km/h (1 Bft)
03.02.2007 04:00 3.5 C 86 % 1033.0 hPa 0.0 l/m 0.6 km/h (0 Bft) O-SO 0.00 h 0.0 UV-I 0 W/m 1.4 C 3.5 C 1.3 km/h (1 Bft)
03.02.2007 05:00 3.4 C 87 % 1033.5 hPa 0.0 l/m 2.8 km/h (1 Bft) O-SO 0.00 h 0.0 UV-I 0 W/m 1.4 C 3.2 C 4.5 km/h (1 Bft)
03.02.2007 06:00 3.2 C 93 % 1033.7 hPa 0.0 l/m 0.2 km/h (0 Bft) O-SO 0.00 h 0.0 UV-I 0 W/m 2.1 C 3.2 C 0.6 km/h (0 Bft)
03.02.2007 07:00 3.2 C 95 % 1033.9 hPa 0.2 l/m 0.0 km/h (0 Bft) N 0.00 h 0.0 UV-I 0 W/m 2.5 C 3.2 C 0.0 km/h (0 Bft)
03.02.2007 08:00 3.1 C 96 % 1034.3 hPa 0.0 l/m 0.0 km/h (0 Bft) O-SO 0.00 h 0.0 UV-I 23 W/m 2.5 C 3.1 C 0.2 km/h (0 Bft)
03.02.2007 09:00 3.1 C 96 % 1034.4 hPa 0.0 l/m 0.3 km/h (0 Bft) O-SO 0.13 h 0.6 UV-I 95 W/m 2.6 C 3.1 C 1.0 km/h (0 Bft)
03.02.2007 10:00 5.2 C 87 % 1034.9 hPa 0.0 l/m 2.0 km/h (1 Bft) NO 0.47 h 0.9 UV-I 180 W/m 3.2 C 5.1 C 4.8 km/h (1 Bft)
03.02.2007 11:00 7.1 C 74 % 1034.8 hPa 0.0 l/m 5.0 km/h (1 Bft) O 1.00 h 1.4 UV-I 337 W/m 2.8 C 6.5 C 9.8 km/h (2 Bft)
03.02.2007 12:00 7.6 C 74 % 1034.4 hPa 0.0 l/m 7.1 km/h (2 Bft) O-SO 0.83 h 1.5 UV-I 327 W/m 3.3 C 6.5 C 12.1 km/h (2 Bft)
03.02.2007 13:00 8.1 C 69 % 1033.8 hPa 0.0 l/m 6.4 km/h (2 Bft) O-SO 0.53 h 1.3 UV-I 273 W/m 2.7 C 7.2 C 10.8 km/h (2 Bft)
03.02.2007 14:00 7.9 C 67 % 1033.5 hPa 0.0 l/m 5.1 km/h (1 Bft) O-SO 0.12 h 0.8 UV-I 152 W/m 2.2 C 7.2 C 9.7 km/h (2 Bft)
03.02.2007 15:00 7.7 C 67 % 1033.5 hPa 0.0 l/m 9.1 km/h (2 Bft) O-SO 0.77 h 0.7 UV-I 194 W/m 1.9 C 6.1 C 15.0 km/h (3 Bft)
03.02.2007 16:00 6.9 C 68 % 1033.0 hPa 0.0 l/m 6.3 km/h (2 Bft) O-SO 0.30 h 0.5 UV-I 69 W/m 1.4 C 5.9 C 11.2 km/h (2 Bft)
03.02.2007 17:00 5.8 C 70 % 1033.5 hPa 0.0 l/m 4.3 km/h (1 Bft) O-SO 0.00 h 0.0 UV-I 11 W/m 0.8 C 5.3 C 8.7 km/h (2 Bft)
03.02.2007 18:00 4.8 C 73 % 1033.8 hPa 0.0 l/m 2.5 km/h (1 Bft) NO 0.00 h 0.0 UV-I 0 W/m 0.3 C 4.7 C 5.8 km/h (2 Bft)
03.02.2007 19:00 4.1 C 74 % 1034.0 hPa 0.0 l/m 1.9 km/h (1 Bft) O 0.00 h 0.0 UV-I 0 W/m -0.2 C 4.0 C 4.3 km/h (1 Bft)
03.02.2007 20:00 3.1 C 76 % 1033.9 hPa 0.0 l/m 0.9 km/h (0 Bft) O-SO 0.00 h 0.0 UV-I 0 W/m -0.7 C 3.1 C 2.4 km/h (1 Bft)
03.02.2007 21:00 2.0 C 80 % 1033.6 hPa 0.0 l/m 2.8 km/h (1 Bft) O-SO 0.00 h 0.0 UV-I 0 W/m -1.0 C 1.8 C 4.8 km/h (1 Bft)
03.02.2007 22:00 2.1 C 78 % 1033.0 hPa 0.0 l/m 3.5 km/h (1 Bft) N-NO 0.00 h 0.0 UV-I 0 W/m -1.3 C 1.4 C 8.2 km/h (2 Bft)
03.02.2007 23:00 2.5 C 75 % 1032.7 hPa 0.0 l/m 4.7 km/h (1 Bft) N-NO 0.00 h 0.0 UV-I 0 W/m -1.4 C 1.5 C 10.2 km/h (2 Bft)
04.02.2007 00:00 2.2 C 76 % 1032.7 hPa 0.0 l/m 2.3 km/h (1 Bft) N-NO 0.00 h 0.0 UV-I 0 W/m -1.5 C 1.9 C 6.0 km/h (2 Bft)
04.02.2007 01:00 2.1 C 78 % 1032.4 hPa 0.0 l/m 2.7 km/h (1 Bft) N-NO 0.00 h 0.0 UV-I 0 W/m -1.3 C 1.8 C 6.8 km/h (2 Bft)
04.02.2007 02:00 2.0 C 79 % 1032.0 hPa 0.0 l/m 1.8 km/h (1 Bft) NO 0.00 h 0.0 UV-I 0 W/m -1.3 C 1.9 C 4.7 km/h (1 Bft)
04.02.2007 03:00 1.6 C 81 % 1031.9 hPa 0.0 l/m 0.7 km/h (0 Bft) NO 0.00 h 0.0 UV-I 0 W/m -1.3 C 1.6 C 2.4 km/h (1 Bft)
04.02.2007 04:00 0.6 C 86 % 1032.0 hPa 0.0 l/m 0.9 km/h (0 Bft) O-NO 0.00 h 0.0 UV-I 0 W/m -1.5 C 0.6 C 2.3 km/h (1 Bft)
04.02.2007 05:00 0.7 C 86 % 1031.9 hPa 0.0 l/m 0.5 km/h (0 Bft) O-NO 0.00 h 0.0 UV-I 0 W/m -1.4 C 0.7 C 1.7 km/h (1 Bft)
04.02.2007 06:00 0.0 C 89 % 1031.9 hPa 0.0 l/m 0.9 km/h (0 Bft) O-SO 0.00 h 0.0 UV-I 0 W/m -1.6 C -0.0 C 1.9 km/h (1 Bft)
04.02.2007 07:00 -0.3 C 91 % 1032.0 hPa 0.0 l/m 0.9 km/h (0 Bft) SO 0.00 h 0.0 UV-I 6 W/m -1.6 C -0.3 C 2.2 km/h (1 Bft)
04.02.2007 08:00 0.6 C 90 % 1032.4 hPa 0.0 l/m 0.6 km/h (0 Bft) SO 0.02 h 0.0 UV-I 22 W/m -0.8 C 0.6 C 1.8 km/h (1 Bft)
04.02.2007 09:00 1.8 C 88 % 1032.5 hPa 0.0 l/m 1.9 km/h (1 Bft) S 0.43 h 0.7 UV-I 122 W/m 0.0 C 1.6 C 4.5 km/h (1 Bft)
04.02.2007 10:00 3.8 C 82 % 1032.3 hPa 0.0 l/m 6.3 km/h (2 Bft) O-SO 0.83 h 0.9 UV-I 272 W/m 1.0 C 2.4 C 11.6 km/h (2 Bft)
04.02.2007 11:00 5.2 C 75 % 1032.0 hPa 0.0 l/m 4.3 km/h (1 Bft) O-SO 0.97 h 1.4 UV-I 362 W/m 1.1 C 4.5 C 9.4 km/h (2 Bft)
04.02.2007 12:00 6.4 C 69 % 1031.2 hPa 0.0 l/m 6.1 km/h (2 Bft) O-SO 1.00 h 1.7 UV-I 398 W/m 1.1 C 5.4 C 12.8 km/h (3 Bft)
04.02.2007 13:00 7.4 C 65 % 1030.3 hPa 0.0 l/m 6.8 km/h (2 Bft) O-SO 1.00 h 1.6 UV-I 392 W/m 1.3 C 6.4 C 12.4 km/h (3 Bft)
04.02.2007 14:00 7.6 C 64 % 1029.7 hPa 0.0 l/m 11.8 km/h (2 Bft) O-SO 1.00 h 1.2 UV-I 331 W/m 1.3 C 5.6 C 18.5 km/h (3 Bft)
04.02.2007 15:00 7.7 C 65 % 1029.3 hPa 0.0 l/m 9.0 km/h (2 Bft) O-SO 1.00 h 0.8 UV-I 231 W/m 1.5 C 6.1 C 14.1 km/h (3 Bft)
04.02.2007 16:00 7.4 C 64 % 1028.9 hPa 0.0 l/m 6.7 km/h (2 Bft) O-SO 0.95 h 0.5 UV-I 106 W/m 1.1 C 6.3 C 10.4 km/h (2 Bft)
04.02.2007 17:00 6.4 C 68 % 1028.5 hPa 0.0 l/m 5.9 km/h (2 Bft) O-SO 0.02 h 0.0 UV-I 14 W/m 0.8 C 5.4 C 9.4 km/h (2 Bft)
04.02.2007 18:00 4.7 C 74 % 1028.6 hPa 0.0 l/m 1.0 km/h (0 Bft) O 0.00 h 0.0 UV-I 0 W/m 0.4 C 4.6 C 1.8 km/h (1 Bft)
04.02.2007 19:00 2.7 C 82 % 1028.4 hPa 0.0 l/m 2.8 km/h (1 Bft) O-SO 0.00 h 0.0 UV-I 0 W/m -0.1 C 2.6 C 4.1 km/h (1 Bft)
04.02.2007 20:00 1.6 C 85 % 1028.1 hPa 0.0 l/m 3.6 km/h (1 Bft) O 0.00 h 0.0 UV-I 0 W/m -0.6 C 1.2 C 5.0 km/h (1 Bft)
04.02.2007 21:00 0.4 C 89 % 1027.6 hPa 0.0 l/m 1.3 km/h (1 Bft) O 0.00 h 0.0 UV-I 0 W/m -1.2 C 0.3 C 2.1 km/h (1 Bft)
04.02.2007 22:00 -0.3 C 91 % 1027.3 hPa 0.0 l/m 2.4 km/h (1 Bft) O-SO 0.00 h 0.0 UV-I 0 W/m -1.6 C -0.7 C 3.8 km/h (1 Bft)
04.02.2007 23:00 -0.8 C 92 % 1026.9 hPa 0.0 l/m 1.9 km/h (1 Bft) O-SO 0.00 h 0.0 UV-I 0 W/m -1.9 C -1.0 C 3.1 km/h (1 Bft)
Min-Datum _ 30.01.07 29.01.07 30.01.07 - 29.01.07 - - - - 30.01.07 31.01.07 29.01.07
_ Min-Zeit 08:17 16:03 14:45 - 02:03 - - - - 08:17 04:23 06:19
Minimum _ -3.5 C 58 % 1024.8 hPa - 0.0 km/h (0 Bft) - - - - -4.0 C -4.5 C 0.0 km/h (0 Bft)
Max-Datum _ 03.02.07 31.01.07 03.02.07 03.02.07 03.02.07 - 29.01.07 02.02.07 29.01.07 03.02.07 03.02.07 04.02.07
_ Max-Zeit 13:19 08:11 11:00 07:15 14:58 - 08:09 12:13 11:27 12:17 13:15 12:21
Maximum _ 8.5 C 100 % 1035.2 hPa 0.2 l/m 19.5 km/h
O-SO (3 Bft)
- 0.02 h 1.7 UV-I 566 W/m 3.8 C 8.4 C 30.6 km/h
O-SO (5 Bft)
Durchschnitt _ 2.6 C 84 % 1029.2 hPa #0.2 l/m 2.1 km/h (1 Bft) O-SO #29:34 h 0.9 UV-I 154 W/m 0.1 C 2.3 C 4.1 km/h (1 Bft)
© Kaiko 2007